sensor_id;sensor_type;location;lat;lon;timestamp;pressure;altitude;pressure_sealevel;temperature;humidity
35551;BME280;21655;46.056;13.616;2023-01-13T00:00:52;100927.94;;;4.35;100.00
35551;BME280;21655;46.056;13.616;2023-01-13T00:03:17;100927.56;;;4.28;100.00
35551;BME280;21655;46.056;13.616;2023-01-13T00:05:43;100922.44;;;4.24;100.00
35551;BME280;21655;46.056;13.616;2023-01-13T00:08:08;100919.84;;;4.22;100.00
35551;BME280;21655;46.056;13.616;2023-01-13T00:10:34;100924.34;;;4.23;100.00
35551;BME280;21655;46.056;13.616;2023-01-13T00:13:00;100918.34;;;4.18;100.00
35551;BME280;21655;46.056;13.616;2023-01-13T00:15:27;100920.22;;;4.18;100.00
35551;BME280;21655;46.056;13.616;2023-01-13T00:17:52;100919.22;;;4.19;100.00
35551;BME280;21655;46.056;13.616;2023-01-13T00:20:18;100913.34;;;4.23;100.00
35551;BME280;21655;46.056;13.616;2023-01-13T00:22:43;100914.84;;;4.27;100.00
35551;BME280;21655;46.056;13.616;2023-01-13T00:25:09;100910.97;;;4.30;100.00
35551;BME280;21655;46.056;13.616;2023-01-13T00:27:34;100915.22;;;4.34;100.00
35551;BME280;21655;46.056;13.616;2023-01-13T00:30:00;100902.50;;;4.33;100.00
35551;BME280;21655;46.056;13.616;2023-01-13T00:32:25;100906.72;;;4.37;100.00
35551;BME280;21655;46.056;13.616;2023-01-13T00:34:51;100906.59;;;4.38;100.00
35551;BME280;21655;46.056;13.616;2023-01-13T00:37:17;100906.72;;;4.37;100.00
35551;BME280;21655;46.056;13.616;2023-01-13T00:39:42;100900.09;;;4.39;100.00
35551;BME280;21655;46.056;13.616;2023-01-13T00:42:08;100901.47;;;4.45;100.00
35551;BME280;21655;46.056;13.616;2023-01-13T00:44:52;100897.72;;;4.46;100.00
35551;BME280;21655;46.056;13.616;2023-01-13T00:47:17;100899.69;;;4.44;100.00
35551;BME280;21655;46.056;13.616;2023-01-13T00:49:43;100889.97;;;4.40;100.00
35551;BME280;21655;46.056;13.616;2023-01-13T00:52:10;100892.47;;;4.43;100.00
35551;BME280;21655;46.056;13.616;2023-01-13T00:54:35;100889.97;;;4.40;100.00
35551;BME280;21655;46.056;13.616;2023-01-13T00:57:01;100891.25;;;4.36;100.00
35551;BME280;21655;46.056;13.616;2023-01-13T00:59:26;100888.75;;;4.33;100.00
35551;BME280;21655;46.056;13.616;2023-01-13T01:01:51;100892.09;;;4.36;100.00
35551;BME280;21655;46.056;13.616;2023-01-13T01:04:17;100894.72;;;4.38;100.00
35551;BME280;21655;46.056;13.616;2023-01-13T01:06:42;100889.34;;;4.36;100.00
35551;BME280;21655;46.056;13.616;2023-01-13T01:09:11;100898.59;;;4.35;100.00
35551;BME280;21655;46.056;13.616;2023-01-13T01:11:37;100890.25;;;4.37;100.00
35551;BME280;21655;46.056;13.616;2023-01-13T01:14:03;100893.09;;;4.35;100.00
35551;BME280;21655;46.056;13.616;2023-01-13T01:16:30;100894.09;;;4.34;100.00
35551;BME280;21655;46.056;13.616;2023-01-13T01:18:56;100888.03;;;4.31;100.00
35551;BME280;21655;46.056;13.616;2023-01-13T01:21:23;100890.25;;;4.37;100.00
35551;BME280;21655;46.056;13.616;2023-01-13T01:23:49;100880.16;;;4.37;100.00
35551;BME280;21655;46.056;13.616;2023-01-13T01:26:17;100880.88;;;4.39;100.00
35551;BME280;21655;46.056;13.616;2023-01-13T01:28:43;100884.22;;;4.43;100.00
35551;BME280;21655;46.056;13.616;2023-01-13T01:31:18;100876.50;;;4.48;100.00
35551;BME280;21655;46.056;13.616;2023-01-13T01:33:44;100867.38;;;4.47;100.00
35551;BME280;21655;46.056;13.616;2023-01-13T01:36:12;100864.28;;;4.41;100.00
35551;BME280;21655;46.056;13.616;2023-01-13T01:38:38;100860.94;;;4.37;100.00
35551;BME280;21655;46.056;13.616;2023-01-13T01:41:03;100860.34;;;4.23;100.00
35551;BME280;21655;46.056;13.616;2023-01-13T01:46:35;100863.56;;;4.28;100.00
35551;BME280;21655;46.056;13.616;2023-01-13T01:49:13;100848.59;;;4.32;100.00
35551;BME280;21655;46.056;13.616;2023-01-13T01:54:24;100853.72;;;4.25;100.00
35551;BME280;21655;46.056;13.616;2023-01-13T01:56:50;100854.72;;;4.24;100.00
35551;BME280;21655;46.056;13.616;2023-01-13T01:59:17;100844.59;;;4.25;100.00
35551;BME280;21655;46.056;13.616;2023-01-13T02:01:43;100851.25;;;4.22;100.00
35551;BME280;21655;46.056;13.616;2023-01-13T02:04:13;100848.00;;;4.17;100.00
35551;BME280;21655;46.056;13.616;2023-01-13T02:06:41;100845.13;;;4.19;100.00
35551;BME280;21655;46.056;13.616;2023-01-13T02:09:08;100838.38;;;4.23;100.00
35551;BME280;21655;46.056;13.616;2023-01-13T02:11:35;100833.25;;;4.29;100.00
35551;BME280;21655;46.056;13.616;2023-01-13T02:14:21;100826.91;;;4.29;100.00
35551;BME280;21655;46.056;13.616;2023-01-13T02:36:18;100828.59;;;4.41;100.00
35551;BME280;21655;46.056;13.616;2023-01-13T02:39:09;100821.97;;;4.43;100.00
35551;BME280;21655;46.056;13.616;2023-01-13T02:41:38;100820.84;;;4.46;100.00
35551;BME280;21655;46.056;13.616;2023-01-13T02:44:28;100823.09;;;4.41;100.00
35551;BME280;21655;46.056;13.616;2023-01-13T02:47:00;100811.84;;;4.44;100.00
35551;BME280;21655;46.056;13.616;2023-01-13T02:49:30;100811.47;;;4.48;100.00
35551;BME280;21655;46.056;13.616;2023-01-13T02:52:04;100814.09;;;4.50;100.00
35551;BME280;21655;46.056;13.616;2023-01-13T02:54:33;100805.13;;;4.48;100.00
35551;BME280;21655;46.056;13.616;2023-01-13T02:57:01;100804.84;;;4.51;100.00
35551;BME280;21655;46.056;13.616;2023-01-13T02:59:28;100807.59;;;4.51;100.00
35551;BME280;21655;46.056;13.616;2023-01-13T03:01:55;100802.03;;;4.41;100.00
35551;BME280;21655;46.056;13.616;2023-01-13T03:07:14;100794.41;;;4.45;100.00
35551;BME280;21655;46.056;13.616;2023-01-13T03:09:54;100789.56;;;4.37;100.00
35551;BME280;21655;46.056;13.616;2023-01-13T03:15:16;100790.03;;;4.42;100.00
35551;BME280;21655;46.056;13.616;2023-01-13T03:18:04;100786.28;;;4.43;100.00
35551;BME280;21655;46.056;13.616;2023-01-13T03:20:35;100793.25;;;4.47;100.00
35551;BME280;21655;46.056;13.616;2023-01-13T03:23:08;100787.03;;;4.45;100.00
35551;BME280;21655;46.056;13.616;2023-01-13T03:25:40;100788.03;;;4.44;100.00
35551;BME280;21655;46.056;13.616;2023-01-13T03:28:16;100786.28;;;4.43;100.00
35551;BME280;21655;46.056;13.616;2023-01-13T03:31:02;100774.41;;;4.43;100.00
35551;BME280;21655;46.056;13.616;2023-01-13T03:33:36;100785.91;;;4.48;100.00
35551;BME280;21655;46.056;13.616;2023-01-13T03:36:08;100786.16;;;4.45;100.00
35551;BME280;21655;46.056;13.616;2023-01-13T03:38:43;100786.63;;;4.50;100.00
35551;BME280;21655;46.056;13.616;2023-01-13T03:41:17;100788.00;;;4.55;100.00
35551;BME280;21655;46.056;13.616;2023-01-13T03:43:51;100776.84;;;4.57;100.00
35551;BME280;21655;46.056;13.616;2023-01-13T03:49:18;100771.72;;;4.63;100.00
35551;BME280;21655;46.056;13.616;2023-01-13T03:51:50;100781.97;;;4.61;100.00
35551;BME280;21655;46.056;13.616;2023-01-13T03:54:19;100784.31;;;4.66;100.00
35551;BME280;21655;46.056;13.616;2023-01-13T03:56:53;100783.59;;;4.64;100.00
35551;BME280;21655;46.056;13.616;2023-01-13T03:59:23;100775.47;;;4.62;100.00
35551;BME280;21655;46.056;13.616;2023-01-13T04:04:42;100777.09;;;4.65;100.00
35551;BME280;21655;46.056;13.616;2023-01-13T04:07:31;100775.00;;;4.57;100.00
35551;BME280;21655;46.056;13.616;2023-01-13T04:10:04;100766.03;;;4.55;100.00
35551;BME280;21655;46.056;13.616;2023-01-13T04:12:38;100767.03;;;4.54;100.00
35551;BME280;21655;46.056;13.616;2023-01-13T04:15:27;100767.03;;;4.54;100.00
35551;BME280;21655;46.056;13.616;2023-01-13T04:17:53;100767.81;;;4.45;100.00
35551;BME280;21655;46.056;13.616;2023-01-13T04:20:19;100757.44;;;4.49;100.00
35551;BME280;21655;46.056;13.616;2023-01-13T04:22:45;100766.97;;;4.45;100.00
35551;BME280;21655;46.056;13.616;2023-01-13T04:25:10;100757.88;;;4.33;100.00
35551;BME280;21655;46.056;13.616;2023-01-13T04:27:36;100763.25;;;4.35;100.00
35551;BME280;21655;46.056;13.616;2023-01-13T04:30:03;100760.50;;;4.35;100.00
35551;BME280;21655;46.056;13.616;2023-01-13T04:32:28;100756.13;;;4.32;100.00
35551;BME280;21655;46.056;13.616;2023-01-13T04:34:54;100743.69;;;4.28;100.00
35551;BME280;21655;46.056;13.616;2023-01-13T04:37:19;100743.81;;;4.27;100.00
35551;BME280;21655;46.056;13.616;2023-01-13T04:39:45;100749.28;;;4.27;100.00
35551;BME280;21655;46.056;13.616;2023-01-13T04:42:11;100744.69;;;4.27;100.00
35551;BME280;21655;46.056;13.616;2023-01-13T04:44:37;100743.69;;;4.28;100.00
35551;BME280;21655;46.056;13.616;2023-01-13T04:47:03;100747.81;;;4.23;100.00
35551;BME280;21655;46.056;13.616;2023-01-13T04:49:28;100744.00;;;4.14;100.00
35551;BME280;21655;46.056;13.616;2023-01-13T04:51:54;100739.66;;;4.12;100.00
35551;BME280;21655;46.056;13.616;2023-01-13T04:54:19;100749.63;;;4.13;100.00
35551;BME280;21655;46.056;13.616;2023-01-13T04:56:45;100747.75;;;4.02;100.00
35551;BME280;21655;46.056;13.616;2023-01-13T04:59:11;100743.69;;;3.97;100.00
35551;BME280;21655;46.056;13.616;2023-01-13T05:01:37;100743.94;;;3.94;100.00
35551;BME280;21655;46.056;13.616;2023-01-13T05:04:02;100752.56;;;3.89;100.00
35551;BME280;21655;46.056;13.616;2023-01-13T05:06:28;100752.94;;;3.85;100.00
35551;BME280;21655;46.056;13.616;2023-01-13T05:08:54;100747.56;;;3.83;100.00
35551;BME280;21655;46.056;13.616;2023-01-13T05:11:19;100743.34;;;3.79;100.00
35551;BME280;21655;46.056;13.616;2023-01-13T05:14:03;100746.38;;;3.76;100.00
35551;BME280;21655;46.056;13.616;2023-01-13T05:16:50;100740.50;;;3.70;100.00
35551;BME280;21655;46.056;13.616;2023-01-13T05:19:32;100738.03;;;3.67;100.00
35551;BME280;21655;46.056;13.616;2023-01-13T05:21:59;100748.25;;;3.65;100.00
35551;BME280;21655;46.056;13.616;2023-01-13T05:24:43;100742.53;;;3.57;100.00
35551;BME280;21655;46.056;13.616;2023-01-13T05:27:48;100754.75;;;3.53;100.00
35551;BME280;21655;46.056;13.616;2023-01-13T05:30:14;100762.72;;;3.45;100.00
35551;BME280;21655;46.056;13.616;2023-01-13T05:32:39;100771.72;;;3.36;100.00
35551;BME280;21655;46.056;13.616;2023-01-13T05:35:05;100774.56;;;3.35;100.00
35551;BME280;21655;46.056;13.616;2023-01-13T05:37:30;100772.22;;;3.30;100.00
35551;BME280;21655;46.056;13.616;2023-01-13T05:39:56;100774.06;;;3.30;100.00
35551;BME280;21655;46.056;13.616;2023-01-13T05:42:40;100774.31;;;3.27;100.00
35551;BME280;21655;46.056;13.616;2023-01-13T05:45:24;100780.66;;;3.27;100.00
35551;BME280;21655;46.056;13.616;2023-01-13T05:47:50;100781.28;;;3.20;100.00
35551;BME280;21655;46.056;13.616;2023-01-13T05:50:15;100793.47;;;3.16;100.00
35551;BME280;21655;46.056;13.616;2023-01-13T05:52:41;100790.09;;;3.12;100.00
35551;BME280;21655;46.056;13.616;2023-01-13T05:55:08;100787.38;;;3.12;100.00
35551;BME280;21655;46.056;13.616;2023-01-13T05:57:34;100785.28;;;3.16;100.00
35551;BME280;21655;46.056;13.616;2023-01-13T05:59:59;100797.59;;;3.10;100.00
35551;BME280;21655;46.056;13.616;2023-01-13T06:02:25;100794.00;;;3.10;100.00
35551;BME280;21655;46.056;13.616;2023-01-13T06:04:51;100788.16;;;3.14;100.00
35551;BME280;21655;46.056;13.616;2023-01-13T06:07:16;100783.91;;;3.21;100.00
35551;BME280;21655;46.056;13.616;2023-01-13T06:09:42;100786.41;;;3.24;100.00
35551;BME280;21655;46.056;13.616;2023-01-13T06:12:10;100790.88;;;3.25;100.00
35551;BME280;21655;46.056;13.616;2023-01-13T06:14:36;100788.50;;;3.32;100.00
35551;BME280;21655;46.056;13.616;2023-01-13T06:17:12;100791.00;;;3.35;100.00
35551;BME280;21655;46.056;13.616;2023-01-13T06:19:39;100790.88;;;3.36;100.00
35551;BME280;21655;46.056;13.616;2023-01-13T06:22:12;100781.66;;;3.37;100.00
35551;BME280;21655;46.056;13.616;2023-01-13T06:24:39;100786.91;;;3.40;100.00
35551;BME280;21655;46.056;13.616;2023-01-13T06:27:07;100793.13;;;3.42;100.00
35551;BME280;21655;46.056;13.616;2023-01-13T06:29:32;100792.13;;;3.43;100.00
35551;BME280;21655;46.056;13.616;2023-01-13T06:32:00;100785.28;;;3.49;100.00
35551;BME280;21655;46.056;13.616;2023-01-13T06:34:27;100784.16;;;3.51;100.00
35551;BME280;21655;46.056;13.616;2023-01-13T06:36:54;100788.91;;;3.49;100.00
35551;BME280;21655;46.056;13.616;2023-01-13T06:39:23;100778.94;;;3.48;100.00
35551;BME280;21655;46.056;13.616;2023-01-13T06:41:52;100780.53;;;3.51;100.00
35551;BME280;21655;46.056;13.616;2023-01-13T06:44:37;100778.78;;;3.50;100.00
35551;BME280;21655;46.056;13.616;2023-01-13T06:47:03;100773.81;;;3.55;100.00
35551;BME280;21655;46.056;13.616;2023-01-13T06:49:28;100771.69;;;3.58;100.00
35551;BME280;21655;46.056;13.616;2023-01-13T06:51:54;100768.81;;;3.60;100.00
35551;BME280;21655;46.056;13.616;2023-01-13T06:54:20;100771.19;;;3.64;100.00
35551;BME280;21655;46.056;13.616;2023-01-13T06:56:45;100772.78;;;3.66;100.00
35551;BME280;21655;46.056;13.616;2023-01-13T06:59:11;100777.91;;;3.71;100.00
35551;BME280;21655;46.056;13.616;2023-01-13T07:01:36;100769.78;;;3.69;100.00
35551;BME280;21655;46.056;13.616;2023-01-13T07:04:01;100775.78;;;3.74;100.00
35551;BME280;21655;46.056;13.616;2023-01-13T07:06:27;100762.28;;;3.82;100.00
35551;BME280;21655;46.056;13.616;2023-01-13T07:08:53;100777.38;;;3.88;100.00
35551;BME280;21655;46.056;13.616;2023-01-13T07:11:18;100775.50;;;3.88;100.00
35551;BME280;21655;46.056;13.616;2023-01-13T07:13:43;100773.72;;;3.98;100.00
35551;BME280;21655;46.056;13.616;2023-01-13T07:16:27;100765.47;;;4.09;100.00
35551;BME280;21655;46.056;13.616;2023-01-13T07:18:53;100780.13;;;4.19;100.00
35551;BME280;21655;46.056;13.616;2023-01-13T07:21:19;100779.25;;;4.30;100.00
35551;BME280;21655;46.056;13.616;2023-01-13T07:23:45;100780.56;;;4.35;100.00
35551;BME280;21655;46.056;13.616;2023-01-13T07:26:12;100778.19;;;4.42;100.00
35551;BME280;21655;46.056;13.616;2023-01-13T07:28:38;100785.16;;;4.46;100.00
35551;BME280;21655;46.056;13.616;2023-01-13T07:31:10;100789.22;;;4.51;100.00
35551;BME280;21655;46.056;13.616;2023-01-13T07:33:37;100785.66;;;4.40;100.00
35551;BME280;21655;46.056;13.616;2023-01-13T07:36:03;100783.44;;;4.45;100.00
35551;BME280;21655;46.056;13.616;2023-01-13T07:38:30;100782.63;;;4.54;100.00
35551;BME280;21655;46.056;13.616;2023-01-13T07:40:55;100787.72;;;4.58;100.00
35551;BME280;21655;46.056;13.616;2023-01-13T07:43:21;100776.34;;;4.63;100.00
35551;BME280;21655;46.056;13.616;2023-01-13T07:46:05;100773.78;;;4.71;100.00
35551;BME280;21655;46.056;13.616;2023-01-13T07:48:32;100772.50;;;4.75;100.00
35551;BME280;21655;46.056;13.616;2023-01-13T07:51:05;100765.88;;;4.77;100.00
35551;BME280;21655;46.056;13.616;2023-01-13T07:53:31;100761.88;;;4.81;100.00
35551;BME280;21655;46.056;13.616;2023-01-13T07:55:57;100762.34;;;4.86;100.00
35551;BME280;21655;46.056;13.616;2023-01-13T07:58:24;100760.19;;;4.90;100.00
35551;BME280;21655;46.056;13.616;2023-01-13T08:00:50;100756.31;;;4.92;100.00
35551;BME280;21655;46.056;13.616;2023-01-13T08:03:15;100771.91;;;4.92;100.00
35551;BME280;21655;46.056;13.616;2023-01-13T08:05:41;100774.53;;;4.93;100.00
35551;BME280;21655;46.056;13.616;2023-01-13T08:08:06;100778.75;;;4.97;100.00
35551;BME280;21655;46.056;13.616;2023-01-13T08:10:32;100773.53;;;4.94;100.00
35551;BME280;21655;46.056;13.616;2023-01-13T08:12:57;100776.16;;;4.96;100.00
35551;BME280;21655;46.056;13.616;2023-01-13T08:15:41;100771.22;;;4.99;100.00
35551;BME280;21655;46.056;13.616;2023-01-13T08:18:06;100773.69;;;5.02;100.00
35551;BME280;21655;46.056;13.616;2023-01-13T08:20:31;100782.56;;;5.06;100.00
35551;BME280;21655;46.056;13.616;2023-01-13T08:22:59;100784.91;;;5.10;100.00
35551;BME280;21655;46.056;13.616;2023-01-13T08:25:26;100791.00;;;5.14;100.00
35551;BME280;21655;46.056;13.616;2023-01-13T08:27:52;100792.34;;;5.19;100.00
35551;BME280;21655;46.056;13.616;2023-01-13T08:30:17;100795.41;;;5.26;100.00
35551;BME280;21655;46.056;13.616;2023-01-13T08:32:43;100795.00;;;5.30;100.00
35551;BME280;21655;46.056;13.616;2023-01-13T08:35:09;100807.88;;;5.30;100.00
35551;BME280;21655;46.056;13.616;2023-01-13T08:37:35;100806.94;;;5.40;100.00
35551;BME280;21655;46.056;13.616;2023-01-13T08:40:00;100807.75;;;5.61;100.00
35551;BME280;21655;46.056;13.616;2023-01-13T08:42:26;100816.34;;;5.77;100.00
35551;BME280;21655;46.056;13.616;2023-01-13T08:44:52;100812.69;;;5.97;100.00
35551;BME280;21655;46.056;13.616;2023-01-13T08:47:18;100816.38;;;6.16;100.00
35551;BME280;21655;46.056;13.616;2023-01-13T08:49:43;100821.63;;;6.38;100.00
35551;BME280;21655;46.056;13.616;2023-01-13T08:52:09;100826.72;;;6.71;100.00
35551;BME280;21655;46.056;13.616;2023-01-13T08:54:37;100818.19;;;6.93;100.00
35551;BME280;21655;46.056;13.616;2023-01-13T08:57:02;100811.59;;;7.23;100.00
35551;BME280;21655;46.056;13.616;2023-01-13T08:59:28;100821.88;;;7.30;100.00
35551;BME280;21655;46.056;13.616;2023-01-13T09:01:53;100802.16;;;7.35;100.00
35551;BME280;21655;46.056;13.616;2023-01-13T09:04:21;100804.44;;;7.39;100.00
35551;BME280;21655;46.056;13.616;2023-01-13T09:06:47;100808.41;;;7.63;100.00
35551;BME280;21655;46.056;13.616;2023-01-13T09:09:13;100802.47;;;7.95;100.00
35551;BME280;21655;46.056;13.616;2023-01-13T09:11:45;100805.88;;;8.43;100.00
35551;BME280;21655;46.056;13.616;2023-01-13T09:14:32;100808.56;;;8.52;100.00
35551;BME280;21655;46.056;13.616;2023-01-13T09:16:58;100797.16;;;8.73;100.00
35551;BME280;21655;46.056;13.616;2023-01-13T09:19:24;100800.91;;;8.64;100.00
35551;BME280;21655;46.056;13.616;2023-01-13T09:21:50;100800.50;;;8.59;100.00
35551;BME280;21655;46.056;13.616;2023-01-13T09:24:17;100788.00;;;8.55;100.00
35551;BME280;21655;46.056;13.616;2023-01-13T09:26:42;100791.97;;;8.52;100.00
35551;BME280;21655;46.056;13.616;2023-01-13T09:29:08;100791.78;;;9.06;100.00
35551;BME280;21655;46.056;13.616;2023-01-13T09:31:33;100785.53;;;10.55;100.00
35551;BME280;21655;46.056;13.616;2023-01-13T09:34:00;100777.94;;;12.46;100.00
35551;BME280;21655;46.056;13.616;2023-01-13T09:36:44;100774.34;;;14.15;100.00
35551;BME280;21655;46.056;13.616;2023-01-13T09:39:09;100776.94;;;15.65;100.00
35551;BME280;21655;46.056;13.616;2023-01-13T09:41:40;100772.34;;;16.12;100.00
35551;BME280;21655;46.056;13.616;2023-01-13T09:44:36;100775.59;;;15.82;100.00
35551;BME280;21655;46.056;13.616;2023-01-13T09:47:10;100763.81;;;16.67;100.00
35551;BME280;21655;46.056;13.616;2023-01-13T09:49:40;100759.91;;;16.62;97.94
35551;BME280;21655;46.056;13.616;2023-01-13T09:52:16;100751.78;;;15.92;99.98
35551;BME280;21655;46.056;13.616;2023-01-13T09:55:05;100752.41;;;15.33;100.00
35551;BME280;21655;46.056;13.616;2023-01-13T09:57:35;100748.44;;;15.27;100.00
35551;BME280;21655;46.056;13.616;2023-01-13T10:00:05;100751.75;;;14.39;100.00
35551;BME280;21655;46.056;13.616;2023-01-13T10:05:35;100735.50;;;14.99;100.00
35551;BME280;21655;46.056;13.616;2023-01-13T10:08:06;100735.13;;;15.50;100.00
35551;BME280;21655;46.056;13.616;2023-01-13T10:10:49;100733.03;;;15.59;100.00
35551;BME280;21655;46.056;13.616;2023-01-13T10:13:27;100718.75;;;15.75;100.00
35551;BME280;21655;46.056;13.616;2023-01-13T10:16:04;100723.69;;;14.83;100.00
35551;BME280;21655;46.056;13.616;2023-01-13T10:18:43;100719.09;;;14.96;100.00
35551;BME280;21655;46.056;13.616;2023-01-13T10:21:32;100705.69;;;15.06;100.00
35551;BME280;21655;46.056;13.616;2023-01-13T10:24:21;100710.16;;;14.44;100.00
35551;BME280;21655;46.056;13.616;2023-01-13T10:27:04;100708.00;;;14.11;100.00
35551;BME280;21655;46.056;13.616;2023-01-13T10:29:31;100701.09;;;13.78;100.00
35551;BME280;21655;46.056;13.616;2023-01-13T10:31:58;100706.06;;;12.80;100.00
35551;BME280;21655;46.056;13.616;2023-01-13T10:34:25;100700.03;;;12.54;100.00
35551;BME280;21655;46.056;13.616;2023-01-13T10:37:02;100690.56;;;12.10;100.00
35551;BME280;21655;46.056;13.616;2023-01-13T10:39:40;100686.56;;;11.74;100.00
35551;BME280;21655;46.056;13.616;2023-01-13T10:42:12;100681.63;;;11.45;100.00
35551;BME280;21655;46.056;13.616;2023-01-13T10:45:16;100690.53;;;11.09;100.00
35551;BME280;21655;46.056;13.616;2023-01-13T10:48:04;100683.09;;;10.78;100.00
35551;BME280;21655;46.056;13.616;2023-01-13T10:50:34;100680.16;;;10.39;100.00
35551;BME280;21655;46.056;13.616;2023-01-13T10:53:18;100679.94;;;10.17;100.00
35551;BME280;21655;46.056;13.616;2023-01-13T10:55:57;100682.31;;;10.04;100.00
35551;BME280;21655;46.056;13.616;2023-01-13T10:58:23;100681.91;;;9.91;100.00
35551;BME280;21655;46.056;13.616;2023-01-13T11:00:58;100673.91;;;9.80;100.00
35551;BME280;21655;46.056;13.616;2023-01-13T11:03:24;100668.00;;;9.67;100.00
35551;BME280;21655;46.056;13.616;2023-01-13T11:05:58;100665.84;;;9.53;100.00
35551;BME280;21655;46.056;13.616;2023-01-13T11:08:28;100663.72;;;9.47;100.00
35551;BME280;21655;46.056;13.616;2023-01-13T11:10:57;100663.72;;;9.47;100.00
35551;BME280;21655;46.056;13.616;2023-01-13T11:13:27;100661.16;;;9.53;100.00
35551;BME280;21655;46.056;13.616;2023-01-13T11:16:04;100663.28;;;9.59;100.00
35551;BME280;21655;46.056;13.616;2023-01-13T11:24:21;100648.69;;;9.49;100.00
35551;BME280;21655;46.056;13.616;2023-01-13T11:27:04;100648.19;;;9.54;100.00
35551;BME280;21655;46.056;13.616;2023-01-13T11:32:13;100643.84;;;9.51;100.00
35551;BME280;21655;46.056;13.616;2023-01-13T11:34:43;100635.31;;;9.37;100.00
35551;BME280;21655;46.056;13.616;2023-01-13T11:37:19;100625.56;;;9.17;100.00
35551;BME280;21655;46.056;13.616;2023-01-13T11:39:53;100630.19;;;9.17;100.00
35551;BME280;21655;46.056;13.616;2023-01-13T11:42:56;100620.03;;;9.25;100.00
35551;BME280;21655;46.056;13.616;2023-01-13T11:45:52;100617.13;;;9.27;100.00
35551;BME280;21655;46.056;13.616;2023-01-13T11:48:23;100622.66;;;9.27;100.00
35551;BME280;21655;46.056;13.616;2023-01-13T11:57:08;100624.06;;;9.30;100.00
35551;BME280;21655;46.056;13.616;2023-01-13T12:02:26;100626.00;;;9.46;100.00
35551;BME280;21655;46.056;13.616;2023-01-13T12:16:08;100609.25;;;9.14;100.00
35551;BME280;21655;46.056;13.616;2023-01-13T12:21:21;100616.13;;;9.02;100.00
35551;BME280;21655;46.056;13.616;2023-01-13T12:23:59;100605.22;;;9.01;100.00
35551;BME280;21655;46.056;13.616;2023-01-13T12:26:32;100603.16;;;9.03;100.00
35551;BME280;21655;46.056;13.616;2023-01-13T12:29:06;100591.72;;;8.98;100.00
35551;BME280;21655;46.056;13.616;2023-01-13T12:31:37;100585.66;;;8.94;100.00
35551;BME280;21655;46.056;13.616;2023-01-13T12:34:17;100589.28;;;8.95;100.00
35551;BME280;21655;46.056;13.616;2023-01-13T12:41:58;100578.72;;;8.90;100.00
35551;BME280;21655;46.056;13.616;2023-01-13T12:45:18;100580.78;;;8.88;100.00
35551;BME280;21655;46.056;13.616;2023-01-13T12:47:44;100577.31;;;8.86;100.00
35551;BME280;21655;46.056;13.616;2023-01-13T12:53:25;100579.59;;;8.91;100.00
35551;BME280;21655;46.056;13.616;2023-01-13T12:55:50;100574.72;;;8.85;100.00
35551;BME280;21655;46.056;13.616;2023-01-13T12:58:17;100566.25;;;8.86;100.00
35551;BME280;21655;46.056;13.616;2023-01-13T13:00:59;100567.88;;;8.97;100.00
35551;BME280;21655;46.056;13.616;2023-01-13T13:03:32;100565.81;;;8.99;100.00
35551;BME280;21655;46.056;13.616;2023-01-13T13:09:00;100558.88;;;8.95;100.00
35551;BME280;21655;46.056;13.616;2023-01-13T13:11:41;100563.75;;;9.01;100.00
35551;BME280;21655;46.056;13.616;2023-01-13T13:19:56;100576.59;;;9.10;100.00
35551;BME280;21655;46.056;13.616;2023-01-13T13:29:59;100553.78;;;9.16;100.00
35551;BME280;21655;46.056;13.616;2023-01-13T13:40:39;100576.53;;;9.02;100.00
35551;BME280;21655;46.056;13.616;2023-01-13T13:43:26;100574.44;;;8.96;100.00
35551;BME280;21655;46.056;13.616;2023-01-13T13:46:31;100567.00;;;8.96;100.00
35551;BME280;21655;46.056;13.616;2023-01-13T13:54:53;100568.53;;;8.91;100.00
35551;BME280;21655;46.056;13.616;2023-01-13T13:57:29;100558.31;;;8.83;100.00
35551;BME280;21655;46.056;13.616;2023-01-13T13:59:58;100555.00;;;8.80;100.00
35551;BME280;21655;46.056;13.616;2023-01-13T14:02:29;100551.88;;;8.75;100.00
35551;BME280;21655;46.056;13.616;2023-01-13T14:05:18;100556.66;;;8.73;100.00
35551;BME280;21655;46.056;13.616;2023-01-13T14:07:46;100556.31;;;8.68;100.00
35551;BME280;21655;46.056;13.616;2023-01-13T14:10:35;100563.69;;;8.59;100.00
35551;BME280;21655;46.056;13.616;2023-01-13T14:13:21;100560.75;;;8.61;100.00
35551;BME280;21655;46.056;13.616;2023-01-13T14:18:20;100560.22;;;8.57;100.00
35551;BME280;21655;46.056;13.616;2023-01-13T14:20:59;100567.47;;;8.58;100.00
35551;BME280;21655;46.056;13.616;2023-01-13T14:23:31;100555.72;;;8.56;100.00
35551;BME280;21655;46.056;13.616;2023-01-13T14:26:06;100561.91;;;8.50;100.00
35551;BME280;21655;46.056;13.616;2023-01-13T14:28:36;100563.09;;;8.48;100.00
35551;BME280;21655;46.056;13.616;2023-01-13T14:31:04;100558.72;;;8.45;100.00
35551;BME280;21655;46.056;13.616;2023-01-13T14:33:39;100557.47;;;8.40;100.00
35551;BME280;21655;46.056;13.616;2023-01-13T14:38:48;100576.94;;;8.30;100.00
35551;BME280;21655;46.056;13.616;2023-01-13T14:43:43;100562.81;;;8.16;100.00
35551;BME280;21655;46.056;13.616;2023-01-13T14:46:10;100566.75;;;8.13;100.00
35551;BME280;21655;46.056;13.616;2023-01-13T14:48:36;100561.22;;;8.13;100.00
35551;BME280;21655;46.056;13.616;2023-01-13T14:51:07;100552.41;;;8.10;100.00
35551;BME280;21655;46.056;13.616;2023-01-13T14:53:43;100553.44;;;8.09;100.00